Buzios, Brazil
Current Conditions -  °F | °C
As of 8:00 AM on Monday 22 Dec 2014 (Local Time) from SBCB Reporting Station
Few Clouds Few Clouds  
Wind Chill: 81°   Ceiling: Unl
Heat Index: 89°   Visibility: 6mi
Dew Point: 81°   Wind: 7mph
Humidity: 100%   Direction: 90°E
Pressure: 29.8"   Gusts: NA
Location:  22.83°S, 42°W
Report Text: SBCB 221000Z 09006KT 9999 FEW030 27/27 Q1009
Loading
Personal Weather Stations






























Interactive Weather Map New forecast layout! Learn more

10-Day Weather Forecast

Advertisements
Track Severe Weather on mobile